createdAt,value
2022-12-15T00:03:08.603Z,-2.10
2022-12-15T00:12:04.993Z,-2.30
2022-12-15T00:14:56.617Z,-2.30
2022-12-15T00:17:42.682Z,-2.20
2022-12-15T00:20:37.282Z,-2.10
2022-12-15T00:23:27.069Z,-2.00
2022-12-15T00:26:14.430Z,-1.90
2022-12-15T00:29:00.319Z,-1.80
2022-12-15T00:31:46.213Z,-1.80
2022-12-15T00:34:32.312Z,-1.70
2022-12-15T00:37:19.999Z,-1.70
2022-12-15T00:39:58.493Z,-1.60
2022-12-15T00:42:31.400Z,-1.50
2022-12-15T00:45:07.123Z,-1.50
2022-12-15T00:47:36.026Z,-1.40
2022-12-15T00:50:22.472Z,-1.40
2022-12-15T00:53:12.267Z,-1.40
2022-12-15T00:56:01.272Z,-1.40
2022-12-15T00:58:46.639Z,-1.40
2022-12-15T01:01:37.326Z,-1.40
2022-12-15T01:04:23.861Z,-1.50
2022-12-15T01:07:09.837Z,-1.50
2022-12-15T01:09:58.400Z,-1.50
2022-12-15T01:12:43.987Z,-1.50
2022-12-15T01:15:34.041Z,-1.50
2022-12-15T01:18:21.986Z,-1.60
2022-12-15T01:20:57.635Z,-1.70
2022-12-15T01:23:26.042Z,-1.80
2022-12-15T01:25:58.588Z,-2.00
2022-12-15T01:28:26.703Z,-2.10
2022-12-15T01:30:55.646Z,-2.20
2022-12-15T01:33:24.963Z,-2.20
2022-12-15T01:38:49.315Z,-2.30
2022-12-15T01:41:21.965Z,-2.40
2022-12-15T01:43:50.098Z,-2.40
2022-12-15T01:46:24.632Z,-2.40
2022-12-15T01:48:55.701Z,-2.40
2022-12-15T01:51:29.127Z,-2.50
2022-12-15T01:54:01.040Z,-2.40
2022-12-15T01:56:37.397Z,-2.40
2022-12-15T01:59:09.221Z,-2.40
2022-12-15T02:01:37.930Z,-2.50
2022-12-15T02:04:07.086Z,-2.40
2022-12-15T02:06:36.304Z,-2.40
2022-12-15T02:09:05.280Z,-2.40
2022-12-15T02:11:39.943Z,-2.40
2022-12-15T02:14:09.428Z,-2.50
2022-12-15T02:16:43.524Z,-2.50
2022-12-15T02:19:20.786Z,-2.60
2022-12-15T02:21:56.762Z,-2.70
2022-12-15T02:24:40.335Z,-2.70
2022-12-15T02:27:36.136Z,-2.80
2022-12-15T02:30:18.006Z,-2.90
2022-12-15T02:32:49.749Z,-3.10
2022-12-15T02:35:21.625Z,-3.20
2022-12-15T02:37:50.282Z,-3.30
2022-12-15T02:40:19.234Z,-3.50
2022-12-15T02:42:49.178Z,-3.50
2022-12-15T02:45:22.274Z,-3.60
2022-12-15T02:47:53.481Z,-3.70
2022-12-15T02:50:33.306Z,-3.80
2022-12-15T02:53:08.178Z,-3.80
2022-12-15T02:55:43.030Z,-3.90
2022-12-15T02:58:16.214Z,-3.90
2022-12-15T03:00:47.860Z,-4.00
2022-12-15T03:03:21.002Z,-4.20
2022-12-15T03:05:49.171Z,-4.30
2022-12-15T03:08:17.576Z,-4.30
2022-12-15T03:10:46.335Z,-4.40
2022-12-15T03:13:14.970Z,-4.40
2022-12-15T03:15:42.929Z,-4.50
2022-12-15T03:18:12.729Z,-4.50
2022-12-15T03:20:41.331Z,-4.60
2022-12-15T03:23:09.550Z,-4.60
2022-12-15T03:25:37.825Z,-4.60
2022-12-15T03:28:06.309Z,-4.60
2022-12-15T03:30:34.614Z,-4.50
2022-12-15T03:33:02.547Z,-4.50
2022-12-15T03:35:33.902Z,-4.60
2022-12-15T03:38:01.949Z,-4.60
2022-12-15T03:40:29.893Z,-4.60
2022-12-15T03:42:58.836Z,-4.60
2022-12-15T03:45:27.890Z,-4.60
2022-12-15T03:50:45.805Z,-4.60
2022-12-15T03:53:13.846Z,-4.60
2022-12-15T03:55:42.372Z,-4.60
2022-12-15T03:58:10.515Z,-4.60
2022-12-15T04:00:39.313Z,-4.60
2022-12-15T04:03:07.662Z,-4.70
2022-12-15T04:05:36.811Z,-4.80
2022-12-15T04:08:06.900Z,-4.80
2022-12-15T04:10:36.334Z,-4.80
2022-12-15T04:13:05.950Z,-4.90
2022-12-15T04:15:35.054Z,-4.90
2022-12-15T04:18:04.089Z,-4.80
2022-12-15T04:20:33.349Z,-4.80
2022-12-15T04:23:01.318Z,-4.60
2022-12-15T04:25:49.566Z,-4.60
2022-12-15T04:28:34.862Z,-4.40
2022-12-15T04:31:24.937Z,-4.40
2022-12-15T04:34:11.441Z,-4.30
2022-12-15T04:36:57.241Z,-4.40
2022-12-15T04:39:43.096Z,-4.30
2022-12-15T04:42:30.857Z,-4.20
2022-12-15T04:45:20.901Z,-4.10
2022-12-15T04:48:07.552Z,-4.10
2022-12-15T04:50:53.420Z,-4.00
2022-12-15T04:53:41.251Z,-4.00
2022-12-15T04:56:29.809Z,-3.90
2022-12-15T04:59:17.548Z,-3.90
2022-12-15T05:02:03.805Z,-3.90
2022-12-15T05:04:50.029Z,-3.90
2022-12-15T05:07:35.665Z,-3.90
2022-12-15T05:10:21.329Z,-3.80
2022-12-15T05:13:07.635Z,-3.80
2022-12-15T05:15:54.430Z,-3.80
2022-12-15T05:18:40.706Z,-3.70
2022-12-15T05:21:26.685Z,-3.60
2022-12-15T05:24:12.205Z,-3.60
2022-12-15T05:26:57.891Z,-3.60
2022-12-15T05:29:43.681Z,-3.70
2022-12-15T05:32:13.426Z,-3.70
2022-12-15T05:34:43.039Z,-3.60
2022-12-15T05:37:12.422Z,-3.60
2022-12-15T05:39:40.746Z,-3.60
2022-12-15T05:42:09.464Z,-3.70
2022-12-15T05:44:38.385Z,-3.90
2022-12-15T05:47:06.469Z,-4.00
2022-12-15T05:49:36.417Z,-4.00
2022-12-15T05:52:04.658Z,-4.10
2022-12-15T05:54:32.941Z,-4.20
2022-12-15T05:57:01.286Z,-4.40
2022-12-15T05:59:29.570Z,-4.50
2022-12-15T06:01:57.724Z,-4.50
2022-12-15T06:04:26.890Z,-4.60
2022-12-15T06:06:56.681Z,-4.60
2022-12-15T06:09:25.169Z,-4.60
2022-12-15T06:11:54.189Z,-4.70
2022-12-15T06:14:22.914Z,-4.70
2022-12-15T06:16:51.790Z,-4.70
2022-12-15T06:19:21.436Z,-4.70
2022-12-15T06:21:50.038Z,-4.70
2022-12-15T06:24:19.981Z,-4.70
2022-12-15T06:26:49.827Z,-4.80
2022-12-15T06:29:19.360Z,-4.80
2022-12-15T06:31:48.248Z,-4.90
2022-12-15T06:34:17.127Z,-5.00
2022-12-15T06:36:45.508Z,-4.90
2022-12-15T06:39:15.406Z,-4.90
2022-12-15T06:41:47.858Z,-4.90
2022-12-15T06:44:16.334Z,-4.90
2022-12-15T06:46:46.202Z,-4.90
2022-12-15T06:49:14.904Z,-4.90
2022-12-15T06:51:44.188Z,-4.90
2022-12-15T06:54:12.516Z,-4.90
2022-12-15T06:56:40.972Z,-4.90
2022-12-15T06:59:11.763Z,-4.90
2022-12-15T07:01:41.667Z,-5.00
2022-12-15T07:04:11.651Z,-5.00
2022-12-15T07:06:39.900Z,-5.00
2022-12-15T07:09:13.479Z,-5.00
2022-12-15T07:11:41.665Z,-5.00
2022-12-15T07:14:11.385Z,-5.00
2022-12-15T07:16:40.003Z,-5.00
2022-12-15T07:19:11.654Z,-5.00
2022-12-15T07:21:41.155Z,-5.00
2022-12-15T07:24:10.845Z,-5.10
2022-12-15T07:26:39.610Z,-5.10
2022-12-15T07:29:07.599Z,-5.00
2022-12-15T07:31:37.652Z,-5.00
2022-12-15T07:34:05.991Z,-5.00
2022-12-15T07:36:33.875Z,-5.00
2022-12-15T07:39:02.304Z,-5.00
2022-12-15T07:41:32.154Z,-5.00
2022-12-15T07:44:02.227Z,-4.80
2022-12-15T07:46:31.514Z,-4.40
2022-12-15T07:49:01.297Z,-4.00
2022-12-15T07:51:29.943Z,-3.60
2022-12-15T07:53:58.147Z,-3.10
2022-12-15T07:56:26.107Z,-2.80
2022-12-15T07:58:54.226Z,-2.60
2022-12-15T08:01:22.844Z,-2.40
2022-12-15T08:03:52.481Z,-2.30
2022-12-15T08:06:22.475Z,-2.30
2022-12-15T08:08:51.415Z,-2.20
2022-12-15T08:11:20.839Z,-2.20
2022-12-15T08:14:02.392Z,-2.20
2022-12-15T08:16:32.005Z,-2.00
2022-12-15T08:19:01.120Z,-2.00
2022-12-15T08:21:31.817Z,-1.90
2022-12-15T08:24:00.874Z,-1.90
2022-12-15T08:26:30.899Z,-1.70
2022-12-15T08:29:24.409Z,-1.60
2022-12-15T08:31:51.834Z,-1.40
2022-12-15T08:34:21.758Z,-1.30
2022-12-15T08:36:51.479Z,-1.30
2022-12-15T08:39:21.498Z,-1.30
2022-12-15T08:41:51.344Z,-1.30
2022-12-15T08:44:21.077Z,-1.30
2022-12-15T08:46:49.670Z,-1.30
2022-12-15T08:49:21.984Z,-1.20
2022-12-15T08:51:53.710Z,-1.20
2022-12-15T08:54:22.040Z,-1.30
2022-12-15T08:56:50.942Z,-1.30
2022-12-15T08:59:19.482Z,-1.30
2022-12-15T09:01:48.427Z,-1.10
2022-12-15T09:04:17.527Z,-1.10
2022-12-15T09:06:50.445Z,-1.10
2022-12-15T09:09:21.862Z,-1.10
2022-12-15T09:11:50.696Z,-1.20
2022-12-15T09:14:25.559Z,-1.30
2022-12-15T09:16:57.295Z,-1.20
2022-12-15T09:19:25.735Z,-1.10
2022-12-15T09:21:53.828Z,-1.10
2022-12-15T09:24:32.476Z,-1.00
2022-12-15T09:27:03.419Z,-0.90
2022-12-15T09:29:31.975Z,-0.80
2022-12-15T09:32:01.737Z,-0.80
2022-12-15T09:34:31.669Z,-0.90
2022-12-15T09:37:00.260Z,-1.10
2022-12-15T09:39:30.476Z,-1.30
2022-12-15T09:42:00.910Z,-1.30
2022-12-15T09:44:31.679Z,-1.20
2022-12-15T09:47:12.304Z,-1.20
2022-12-15T09:49:48.847Z,-1.00
2022-12-15T09:52:18.601Z,-1.00
2022-12-15T09:54:48.497Z,-0.90
2022-12-15T09:57:20.520Z,-0.90
2022-12-15T09:59:56.498Z,-0.80
2022-12-15T10:02:34.438Z,-0.70
2022-12-15T10:05:06.959Z,-0.90
2022-12-15T10:07:39.687Z,-1.10
2022-12-15T10:10:17.257Z,-1.10
2022-12-15T10:12:59.888Z,-0.90
2022-12-15T10:15:30.794Z,-0.70
2022-12-15T10:18:03.971Z,-0.50
2022-12-15T10:20:32.623Z,-0.40
2022-12-15T10:23:03.341Z,-0.40
2022-12-15T10:25:34.100Z,-0.30
2022-12-15T10:28:21.105Z,-0.30
2022-12-15T10:30:55.045Z,-0.30
2022-12-15T10:33:25.680Z,-0.10
2022-12-15T10:35:55.377Z,0.00
2022-12-15T10:38:26.471Z,0.10
2022-12-15T10:40:57.724Z,0.20
2022-12-15T10:43:27.949Z,0.20
2022-12-15T10:46:03.695Z,0.20
2022-12-15T10:48:32.213Z,0.50
2022-12-15T10:51:15.507Z,0.70
2022-12-15T10:53:50.645Z,0.80
2022-12-15T10:56:32.744Z,1.10
2022-12-15T10:59:03.745Z,1.10
2022-12-15T11:01:33.635Z,1.20
2022-12-15T11:04:01.875Z,1.20
2022-12-15T11:06:33.272Z,1.10
2022-12-15T11:09:09.390Z,0.90
2022-12-15T11:12:04.854Z,0.70
2022-12-15T11:14:43.746Z,0.70
2022-12-15T11:17:15.971Z,0.80
2022-12-15T11:19:49.157Z,0.90
2022-12-15T11:22:23.608Z,1.10
2022-12-15T11:24:55.153Z,1.40
2022-12-15T11:27:27.230Z,1.60
2022-12-15T11:29:59.449Z,1.40
2022-12-15T11:32:30.247Z,1.30
2022-12-15T11:34:58.462Z,1.10
2022-12-15T11:37:44.722Z,0.90
2022-12-15T11:40:20.723Z,0.80
2022-12-15T11:42:56.761Z,0.90
2022-12-15T11:45:27.167Z,1.00
2022-12-15T11:48:00.890Z,1.00
2022-12-15T11:50:32.209Z,0.90
2022-12-15T11:53:06.294Z,0.90
2022-12-15T11:55:41.949Z,1.00
2022-12-15T11:58:22.259Z,1.10
2022-12-15T12:00:59.152Z,1.30
2022-12-15T12:03:34.302Z,1.20
2022-12-15T12:06:20.676Z,1.00
2022-12-15T12:08:58.161Z,1.10
2022-12-15T12:11:43.856Z,1.40
2022-12-15T12:14:18.787Z,1.50
2022-12-15T12:16:50.721Z,1.40
2022-12-15T12:19:23.893Z,1.20
2022-12-15T12:21:57.287Z,1.10
2022-12-15T12:24:27.970Z,0.90
2022-12-15T12:26:58.971Z,0.60
2022-12-15T12:29:34.912Z,0.70
2022-12-15T12:32:06.012Z,0.80
2022-12-15T12:34:40.241Z,1.00
2022-12-15T12:37:20.751Z,0.90
2022-12-15T12:39:51.241Z,0.60
2022-12-15T12:42:23.913Z,0.50
2022-12-15T12:44:53.435Z,0.60
2022-12-15T12:47:23.032Z,0.60
2022-12-15T12:49:53.418Z,0.70
2022-12-15T12:52:23.870Z,0.80
2022-12-15T12:54:56.088Z,0.90
2022-12-15T12:57:32.549Z,0.80
2022-12-15T13:00:03.555Z,0.70
2022-12-15T13:02:45.353Z,0.60
2022-12-15T13:05:28.451Z,0.60
2022-12-15T13:07:58.025Z,0.80
2022-12-15T13:10:26.878Z,0.70
2022-12-15T13:12:55.541Z,0.70
2022-12-15T13:15:39.697Z,0.60
2022-12-15T13:18:09.149Z,0.60
2022-12-15T13:20:40.513Z,0.60
2022-12-15T13:23:27.545Z,0.50
2022-12-15T13:26:12.248Z,0.50
2022-12-15T13:28:45.965Z,0.50
2022-12-15T13:31:23.321Z,0.50
2022-12-15T13:33:54.971Z,0.20
2022-12-15T13:36:43.139Z,-0.10
2022-12-15T13:39:26.436Z,-0.20
2022-12-15T13:45:28.592Z,-0.50
2022-12-15T13:48:00.179Z,-0.50
2022-12-15T13:50:31.980Z,-0.50
2022-12-15T13:53:30.620Z,-0.50
2022-12-15T13:56:01.990Z,-0.50
2022-12-15T13:58:33.297Z,-0.60
2022-12-15T14:01:06.080Z,-0.60
2022-12-15T14:03:37.419Z,-0.70
2022-12-15T14:06:14.225Z,-0.80
2022-12-15T14:08:43.236Z,-0.90
2022-12-15T14:11:50.704Z,-0.80
2022-12-15T14:14:08.676Z,-0.70
2022-12-15T14:16:36.896Z,-0.70
2022-12-15T14:19:14.579Z,-0.70
2022-12-15T14:21:49.967Z,-0.60
2022-12-15T14:24:41.138Z,-0.50
2022-12-15T14:27:09.741Z,-0.40
2022-12-15T14:29:38.145Z,-0.80
2022-12-15T14:32:07.551Z,-1.10
2022-12-15T14:34:41.195Z,-1.40
2022-12-15T14:37:12.173Z,-1.40
2022-12-15T14:39:43.827Z,-1.40
2022-12-15T14:42:15.788Z,-1.30
2022-12-15T14:44:49.724Z,-1.10
2022-12-15T14:47:21.675Z,-1.00
2022-12-15T14:49:51.348Z,-0.90
2022-12-15T14:52:26.994Z,-0.80
2022-12-15T14:54:57.406Z,-0.80
2022-12-15T14:57:27.862Z,-0.80
2022-12-15T14:59:57.305Z,-0.80
2022-12-15T15:02:27.088Z,-0.80
2022-12-15T15:04:59.747Z,-0.80
2022-12-15T15:07:30.159Z,-0.90
2022-12-15T15:09:58.968Z,-0.90
2022-12-15T15:12:30.317Z,-1.00
2022-12-15T15:15:01.810Z,-1.10
2022-12-15T15:17:34.852Z,-1.10
2022-12-15T15:20:05.972Z,-1.20
2022-12-15T15:22:39.969Z,-1.30
2022-12-15T15:25:27.574Z,-1.40
2022-12-15T15:28:12.083Z,-1.40
2022-12-15T15:30:43.110Z,-1.40
2022-12-15T15:33:13.358Z,-1.50
2022-12-15T15:35:44.240Z,-1.50
2022-12-15T15:38:18.378Z,-1.50
2022-12-15T15:40:50.323Z,-1.40
2022-12-15T15:43:19.100Z,-1.40
2022-12-15T15:45:47.605Z,-1.50
2022-12-15T15:48:22.101Z,-1.50
2022-12-15T15:50:51.668Z,-1.50
2022-12-15T15:53:23.320Z,-1.60
2022-12-15T15:55:52.830Z,-1.60
2022-12-15T15:58:22.831Z,-1.60
2022-12-15T16:00:51.593Z,-1.60
2022-12-15T16:03:19.968Z,-1.50
2022-12-15T16:05:48.298Z,-1.60
2022-12-15T16:08:19.480Z,-1.60
2022-12-15T16:10:49.549Z,-1.60
2022-12-15T16:13:25.677Z,-1.60
2022-12-15T16:15:54.287Z,-1.60
2022-12-15T16:18:22.507Z,-1.60
2022-12-15T16:20:52.035Z,-1.60
2022-12-15T16:23:23.768Z,-1.60
2022-12-15T16:25:53.594Z,-1.60
2022-12-15T16:28:23.129Z,-1.60
2022-12-15T16:30:52.342Z,-1.60
2022-12-15T16:33:20.791Z,-1.60
2022-12-15T16:35:53.139Z,-1.70
2022-12-15T16:38:23.710Z,-1.70
2022-12-15T16:40:52.328Z,-1.80
2022-12-15T16:43:21.298Z,-1.80
2022-12-15T16:45:51.514Z,-1.90
2022-12-15T16:48:19.632Z,-1.90
2022-12-15T16:50:50.693Z,-2.00
2022-12-15T16:53:24.789Z,-2.10
2022-12-15T16:55:55.767Z,-2.20
2022-12-15T16:58:25.252Z,-2.30
2022-12-15T17:00:55.568Z,-2.30
2022-12-15T17:03:26.150Z,-2.40
2022-12-15T17:05:55.205Z,-2.60
2022-12-15T17:08:25.798Z,-2.70
2022-12-15T17:10:55.347Z,-2.70
2022-12-15T17:13:35.618Z,-2.60
2022-12-15T17:16:07.512Z,-2.70
2022-12-15T17:18:36.025Z,-2.70
2022-12-15T17:21:05.560Z,-2.70
2022-12-15T17:23:35.220Z,-2.60
2022-12-15T17:26:25.881Z,-2.60
2022-12-15T17:28:58.738Z,-2.60
2022-12-15T17:31:34.804Z,-2.50
2022-12-15T17:34:08.370Z,-2.30
2022-12-15T17:36:38.083Z,-2.20
2022-12-15T17:39:08.186Z,-2.10
2022-12-15T17:42:03.450Z,-2.00
2022-12-15T17:44:35.421Z,-2.00
2022-12-15T17:47:05.614Z,-1.90
2022-12-15T17:49:37.347Z,-1.90
2022-12-15T17:52:08.124Z,-1.90
2022-12-15T17:54:37.054Z,-1.80
2022-12-15T17:57:07.587Z,-1.90
2022-12-15T17:59:36.996Z,-2.00
2022-12-15T18:02:05.831Z,-2.00
2022-12-15T18:04:36.438Z,-2.00
2022-12-15T18:07:04.842Z,-2.00
2022-12-15T18:09:33.235Z,-2.00
2022-12-15T18:12:01.632Z,-2.10
2022-12-15T18:14:31.580Z,-2.10
2022-12-15T18:17:08.388Z,-2.10
2022-12-15T18:19:36.422Z,-2.20
2022-12-15T18:22:04.646Z,-2.30
2022-12-15T18:24:33.507Z,-2.30
2022-12-15T18:27:01.867Z,-2.40
2022-12-15T18:29:32.712Z,-2.40
2022-12-15T18:32:00.895Z,-2.50
2022-12-15T18:34:29.310Z,-2.40
2022-12-15T18:36:57.396Z,-2.30
2022-12-15T18:39:25.969Z,-2.30
2022-12-15T18:41:56.533Z,-2.30
2022-12-15T18:44:25.946Z,-2.30
2022-12-15T18:46:57.796Z,-2.30
2022-12-15T18:49:26.909Z,-2.40
2022-12-15T18:51:55.710Z,-2.40
2022-12-15T18:54:26.578Z,-2.50
2022-12-15T18:56:55.514Z,-2.60
2022-12-15T18:59:23.956Z,-2.60
2022-12-15T19:01:53.283Z,-2.60
2022-12-15T19:04:22.834Z,-2.70
2022-12-15T19:06:51.556Z,-2.70
2022-12-15T19:09:20.503Z,-2.80
2022-12-15T19:12:06.832Z,-2.90
2022-12-15T19:14:44.152Z,-2.90
2022-12-15T19:17:30.156Z,-2.90
2022-12-15T19:20:17.333Z,-2.90
2022-12-15T19:22:47.425Z,-3.00
2022-12-15T19:25:25.130Z,-2.90
2022-12-15T19:27:59.182Z,-2.90
2022-12-15T19:30:29.126Z,-2.90
2022-12-15T19:32:58.003Z,-2.90
2022-12-15T19:35:29.371Z,-2.90
2022-12-15T19:37:59.301Z,-2.90
2022-12-15T19:40:30.928Z,-2.90
2022-12-15T19:43:00.548Z,-3.00
2022-12-15T19:45:30.533Z,-3.00
2022-12-15T19:48:01.829Z,-3.00
2022-12-15T19:50:33.817Z,-3.10
2022-12-15T19:53:03.348Z,-3.00
2022-12-15T19:55:33.815Z,-3.10
2022-12-15T19:58:08.091Z,-3.10
2022-12-15T20:00:36.571Z,-3.10
2022-12-15T20:03:05.363Z,-3.10
2022-12-15T20:05:36.737Z,-3.10
2022-12-15T20:08:05.800Z,-3.20
2022-12-15T20:10:36.158Z,-3.20
2022-12-15T20:13:05.203Z,-3.30
2022-12-15T20:15:34.883Z,-3.30
2022-12-15T20:18:03.350Z,-3.30
2022-12-15T20:20:32.543Z,-3.30
2022-12-15T20:23:04.753Z,-3.40
2022-12-15T20:25:37.125Z,-3.40
2022-12-15T20:28:06.281Z,-3.40
2022-12-15T20:30:35.970Z,-3.50
2022-12-15T20:33:05.178Z,-3.50
2022-12-15T20:35:35.368Z,-3.50
2022-12-15T20:38:18.793Z,-3.50
2022-12-15T20:40:47.335Z,-3.60
2022-12-15T20:43:17.350Z,-3.60
2022-12-15T20:45:46.208Z,-3.60
2022-12-15T20:48:14.776Z,-3.60
2022-12-15T20:50:45.301Z,-3.60
2022-12-15T20:53:19.917Z,-3.60
2022-12-15T20:55:51.298Z,-3.60
2022-12-15T20:58:21.046Z,-3.60
2022-12-15T21:00:50.018Z,-3.50
2022-12-15T21:03:22.590Z,-3.50
2022-12-15T21:05:51.874Z,-3.50
2022-12-15T21:08:23.691Z,-3.40
2022-12-15T21:10:52.796Z,-3.40
2022-12-15T21:13:22.872Z,-3.40
2022-12-15T21:15:51.414Z,-3.40
2022-12-15T21:18:57.575Z,-3.40
2022-12-15T21:21:14.004Z,-3.40
2022-12-15T21:23:45.690Z,-3.40
2022-12-15T21:26:22.371Z,-3.50
2022-12-15T21:28:56.086Z,-3.50
2022-12-15T21:31:25.102Z,-3.50
2022-12-15T21:33:53.763Z,-3.50
2022-12-15T21:36:24.005Z,-3.50
2022-12-15T21:38:55.031Z,-3.50
2022-12-15T21:41:24.003Z,-3.50
2022-12-15T21:43:52.967Z,-3.50
2022-12-15T21:46:28.877Z,-3.50
2022-12-15T21:49:14.734Z,-3.40
2022-12-15T21:51:44.723Z,-3.40
2022-12-15T21:54:19.871Z,-3.40
2022-12-15T21:56:49.691Z,-3.40
2022-12-15T21:59:20.450Z,-3.40
2022-12-15T22:01:49.749Z,-3.40
2022-12-15T22:04:21.297Z,-3.40
2022-12-15T22:06:50.936Z,-3.50
2022-12-15T22:09:22.827Z,-3.40
2022-12-15T22:11:53.843Z,-3.50
2022-12-15T22:14:25.929Z,-3.50
2022-12-15T22:16:54.857Z,-3.60
2022-12-15T22:19:23.727Z,-3.60
2022-12-15T22:21:52.446Z,-3.60
2022-12-15T22:24:22.068Z,-3.60
2022-12-15T22:26:50.479Z,-3.60
2022-12-15T22:29:19.727Z,-3.60
2022-12-15T22:31:48.534Z,-3.70
2022-12-15T22:34:18.730Z,-3.70
2022-12-15T22:36:46.772Z,-3.70
2022-12-15T22:39:15.354Z,-3.70
2022-12-15T22:41:46.922Z,-3.70
2022-12-15T22:44:17.879Z,-3.70
2022-12-15T22:46:46.381Z,-3.80
2022-12-15T22:49:16.416Z,-3.80
2022-12-15T22:51:45.325Z,-3.80
2022-12-15T22:54:19.701Z,-3.80
2022-12-15T22:56:51.275Z,-3.80
2022-12-15T22:59:23.132Z,-3.90
2022-12-15T23:01:51.681Z,-3.90
2022-12-15T23:04:20.511Z,-3.90
2022-12-15T23:06:49.110Z,-3.90
2022-12-15T23:09:17.422Z,-3.90
2022-12-15T23:11:44.538Z,-3.90
2022-12-15T23:14:15.025Z,-4.00
2022-12-15T23:16:43.621Z,-4.00
2022-12-15T23:19:24.198Z,-4.00
2022-12-15T23:21:52.820Z,-4.00
2022-12-15T23:24:22.594Z,-4.00
2022-12-15T23:26:50.984Z,-4.10
2022-12-15T23:29:21.545Z,-4.00
2022-12-15T23:31:49.975Z,-4.00
2022-12-15T23:34:18.069Z,-4.00
2022-12-15T23:36:46.775Z,-3.90
2022-12-15T23:39:15.145Z,-3.90
2022-12-15T23:41:44.885Z,-3.90
2022-12-15T23:44:13.753Z,-3.90
2022-12-15T23:46:43.198Z,-3.80
2022-12-15T23:49:11.372Z,-3.90
2022-12-15T23:51:39.553Z,-3.90
2022-12-15T23:54:08.197Z,-3.90
2022-12-15T23:56:36.499Z,-3.80
2022-12-15T23:59:07.636Z,-3.80
